Time;durP1;ratioP1;P1;durP2;ratioP2;P2;SDS_P1;SDS_P2;PMS_P1;PMS_P2;Temp;Humidity;BMP_temperature;BMP_pressure;BME280_temperature;BME280_humidity;BME280_pressure;Samples;Min_cycle;Max_cycle;Signal;HPM_P1;HPM_P2
2021/03/12 00:00:46;;;;;;;18.63;3.70;;;11.90;99.90;;;;;;5012390;28;20026;-60
2021/03/12 00:03:20;;;;;;;16.88;3.35;;;11.80;99.90;;;;;;5017017;28;20600;-60
2021/03/12 00:05:54;;;;;;;24.15;4.50;;;11.80;99.90;;;;;;5019484;28;20413;-60
2021/03/12 00:08:24;;;;;;;14.27;2.70;;;11.60;99.90;;;;;;5022833;28;20078;-61
2021/03/12 00:10:50;;;;;;;18.70;4.32;;;11.60;99.90;;;;;;5011657;28;20486;-60
2021/03/12 00:13:18;;;;;;;9.85;3.00;;;11.70;99.90;;;;;;5017610;28;20033;-60
2021/03/12 00:15:44;;;;;;;19.50;3.83;;;11.40;99.90;;;;;;5012500;28;20061;-60
2021/03/12 00:18:10;;;;;;;21.40;4.18;;;11.60;99.90;;;;;;5016576;28;20199;-60
2021/03/12 00:20:37;;;;;;;20.35;4.78;;;11.60;99.90;;;;;;5016177;28;20025;-60
2021/03/12 00:23:04;;;;;;;17.23;4.07;;;11.50;99.90;;;;;;5022901;28;20029;-60
2021/03/12 00:25:36;;;;;;;18.70;3.50;;;11.70;99.90;;;;;;5014448;28;20033;-60
2021/03/12 00:28:03;;;;;;;13.98;3.40;;;11.50;99.90;;;;;;5015207;28;20104;-60
2021/03/12 00:30:29;;;;;;;15.02;3.60;;;11.60;99.90;;;;;;5021494;28;20052;-59
2021/03/12 00:32:54;;;;;;;14.40;3.45;;;11.50;99.90;;;;;;5030111;28;20608;-59
2021/03/12 00:35:20;;;;;;;25.63;4.82;;;11.40;99.90;;;;;;5029274;28;20052;-60
2021/03/12 00:37:46;;;;;;;14.27;3.55;;;11.30;99.90;;;;;;5032463;28;20183;-60
2021/03/12 00:40:15;;;;;;;18.33;3.00;;;11.30;99.90;;;;;;5035956;28;20048;-59
2021/03/12 00:42:42;;;;;;;14.43;2.97;;;11.20;99.90;;;;;;5022848;28;20029;-60
2021/03/12 00:45:13;;;;;;;11.27;2.75;;;11.30;99.90;;;;;;5017348;28;20030;-59
2021/03/12 00:47:40;;;;;;;13.55;4.18;;;11.20;99.90;;;;;;5012126;28;20024;-61
2021/03/12 00:50:06;;;;;;;13.48;2.72;;;11.20;99.90;;;;;;5017716;28;20030;-61
2021/03/12 00:52:32;;;;;;;13.10;2.67;;;11.20;99.90;;;;;;5011417;28;20025;-61
2021/03/12 00:54:58;;;;;;;14.13;3.10;;;11.20;99.90;;;;;;5020406;28;20041;-61
2021/03/12 00:57:24;;;;;;;18.55;3.20;;;11.30;99.90;;;;;;5015446;28;20452;-61
2021/03/12 00:59:50;;;;;;;10.52;2.50;;;11.30;99.90;;;;;;5032026;28;20060;-61
2021/03/12 01:02:15;;;;;;;9.63;2.58;;;11.10;99.90;;;;;;5042059;28;20067;-61
2021/03/12 01:04:41;;;;;;;12.45;2.38;;;11.10;99.90;;;;;;5021419;28;20107;-60
2021/03/12 01:07:07;;;;;;;11.73;2.40;;;11.20;99.90;;;;;;5014952;28;20037;-61
2021/03/12 01:09:33;;;;;;;15.10;2.78;;;11.30;99.90;;;;;;5021405;28;20028;-61
2021/03/12 01:11:59;;;;;;;12.63;2.50;;;11.20;99.90;;;;;;5014319;28;20033;-61
2021/03/12 01:14:24;;;;;;;8.45;2.60;;;11.10;99.90;;;;;;5022019;28;20395;-61
2021/03/12 01:16:51;;;;;;;10.73;2.20;;;11.00;99.90;;;;;;5012974;28;20030;-61
2021/03/12 01:19:17;;;;;;;8.38;2.15;;;11.10;99.90;;;;;;5023243;28;20045;-61
2021/03/12 01:21:43;;;;;;;10.23;2.83;;;10.90;99.90;;;;;;5012785;28;20080;-61
2021/03/12 01:24:10;;;;;;;13.82;2.67;;;11.00;99.90;;;;;;5026713;28;20014;-60
2021/03/12 01:26:35;;;;;;;11.38;2.35;;;11.00;99.90;;;;;;5032149;28;20451;-61
2021/03/12 01:29:01;;;;;;;15.70;2.60;;;10.90;99.90;;;;;;5024521;28;20057;-61
2021/03/12 01:31:27;;;;;;;10.07;1.95;;;10.90;99.90;;;;;;5032208;28;20022;-61
2021/03/12 01:33:52;;;;;;;11.23;2.22;;;11.10;99.90;;;;;;5024216;28;20059;-61
2021/03/12 01:36:18;;;;;;;16.73;2.40;;;11.00;99.90;;;;;;5012093;28;20033;-61
2021/03/12 01:38:44;;;;;;;10.18;2.50;;;11.00;99.90;;;;;;5023052;28;20033;-60
2021/03/12 01:41:10;;;;;;;13.57;2.58;;;10.90;99.90;;;;;;5012359;28;20092;-61
2021/03/12 01:43:35;;;;;;;11.30;2.38;;;10.90;99.90;;;;;;5022050;28;20116;-61
2021/03/12 01:46:01;;;;;;;16.25;2.58;;;10.70;99.90;;;;;;5031888;28;20026;-60
2021/03/12 01:48:27;;;;;;;11.38;2.30;;;10.70;99.90;;;;;;5025451;28;20021;-61
2021/03/12 01:50:58;;;;;;;15.43;2.83;;;10.90;99.90;;;;;;5013983;28;20034;-61
2021/03/12 01:53:25;;;;;;;14.18;2.53;;;10.90;99.90;;;;;;5020412;28;20030;-60
2021/03/12 01:55:52;;;;;;;13.73;3.25;;;10.90;99.90;;;;;;5014095;28;20109;-61
2021/03/12 01:58:19;;;;;;;11.00;2.13;;;10.80;99.90;;;;;;5019674;28;20049;-61
2021/03/12 02:00:45;;;;;;;11.82;2.97;;;10.80;99.90;;;;;;5015075;28;20025;-60
2021/03/12 02:03:14;;;;;;;8.98;2.50;;;10.80;99.90;;;;;;5018364;28;20136;-61
2021/03/12 02:05:40;;;;;;;16.65;2.85;;;10.80;99.90;;;;;;5015172;28;20053;-62
2021/03/12 02:08:07;;;;;;;14.90;2.70;;;10.70;99.90;;;;;;5017634;28;20018;-61
2021/03/12 02:10:34;;;;;;;16.35;2.90;;;10.80;99.90;;;;;;5016587;28;20398;-61
2021/03/12 02:13:15;;;;;;;10.82;2.65;;;10.70;99.90;;;;;;5016825;28;20029;-60
2021/03/12 02:15:54;;;;;;;16.67;2.45;;;10.70;99.90;;;;;;5015257;28;20041;-61
2021/03/12 02:18:54;;;;;;;14.82;2.65;;;10.60;99.90;;;;;;5019438;28;20433;-60
2021/03/12 02:21:36;;;;;;;16.95;3.30;;;10.60;99.90;;;;;;5011256;28;20029;-60
2021/03/12 02:24:06;;;;;;;19.10;2.65;;;10.70;99.90;;;;;;5024202;28;20135;-61
2021/03/12 02:26:41;;;;;;;12.13;2.90;;;10.70;99.90;;;;;;5031145;28;20626;-60
2021/03/12 02:29:15;;;;;;;14.38;2.95;;;10.60;99.90;;;;;;5019669;28;20513;-60
2021/03/12 02:31:41;;;;;;;12.57;2.72;;;10.60;99.90;;;;;;5030096;28;20032;-60
2021/03/12 02:34:10;;;;;;;17.50;3.05;;;10.50;99.90;;;;;;5022252;28;20080;-60
2021/03/12 02:36:41;;;;;;;15.23;2.78;;;10.60;99.90;;;;;;5010985;28;20076;-61
2021/03/12 02:39:11;;;;;;;14.27;2.63;;;10.50;99.90;;;;;;5021565;28;20018;-61
2021/03/12 02:41:38;;;;;;;16.13;2.70;;;10.40;99.90;;;;;;5010999;28;20032;-61
2021/03/12 02:44:07;;;;;;;15.15;2.90;;;10.50;99.90;;;;;;5024830;28;20390;-62
2021/03/12 02:46:34;;;;;;;15.27;3.13;;;10.70;99.90;;;;;;5030878;28;20036;-60
2021/03/12 02:49:01;;;;;;;11.57;2.58;;;10.40;99.90;;;;;;5021828;28;20036;-61
2021/03/12 02:51:27;;;;;;;14.25;2.78;;;10.40;99.90;;;;;;5010854;28;20026;-61
2021/03/12 02:53:53;;;;;;;16.48;2.83;;;10.30;99.90;;;;;;5021868;28;20521;-61
2021/03/12 02:56:20;;;;;;;10.43;2.55;;;10.40;99.90;;;;;;5010820;28;20502;-61
2021/03/12 02:58:48;;;;;;;15.25;2.78;;;10.50;99.90;;;;;;5021786;28;20044;-61
2021/03/12 03:01:14;;;;;;;15.90;3.08;;;10.40;99.90;;;;;;5010988;28;20030;-61
2021/03/12 03:03:40;;;;;;;19.38;3.22;;;10.40;99.90;;;;;;5021388;28;20045;-61
2021/03/12 03:06:08;;;;;;;13.40;2.60;;;10.40;99.90;;;;;;5010780;28;20050;-61
2021/03/12 03:08:36;;;;;;;19.95;3.28;;;10.40;99.90;;;;;;5020316;28;20032;-61
2021/03/12 03:11:05;;;;;;;11.95;2.83;;;10.30;99.90;;;;;;5011830;28;20033;-61
2021/03/12 03:13:32;;;;;;;17.73;3.15;;;10.20;99.90;;;;;;5019742;28;20028;-61
2021/03/12 03:16:00;;;;;;;13.65;3.05;;;10.20;99.90;;;;;;5011568;28;20570;-61
2021/03/12 03:18:27;;;;;;;14.68;2.90;;;10.30;99.90;;;;;;5018615;28;20028;-60
2021/03/12 03:20:55;;;;;;;20.10;3.22;;;10.20;99.90;;;;;;5012375;28;20030;-61
2021/03/12 03:23:20;;;;;;;17.02;2.70;;;10.30;99.90;;;;;;5018205;28;20033;-61
2021/03/12 03:25:46;;;;;;;16.23;3.38;;;10.30;99.90;;;;;;5029941;28;20017;-61
2021/03/12 03:28:12;;;;;;;16.08;3.35;;;10.30;99.90;;;;;;5023642;28;20091;-61
2021/03/12 03:30:38;;;;;;;19.77;2.92;;;10.30;99.90;;;;;;5014681;28;20100;-61
2021/03/12 03:33:04;;;;;;;14.23;2.45;;;10.20;99.90;;;;;;5015507;28;20493;-61
2021/03/12 03:35:29;;;;;;;10.77;2.83;;;10.20;99.90;;;;;;5015217;28;20111;-60
2021/03/12 03:37:55;;;;;;;21.80;3.10;;;10.20;99.90;;;;;;5014547;28;20486;-61
2021/03/12 03:40:21;;;;;;;13.85;2.75;;;10.30;99.90;;;;;;5016678;28;20589;-60
2021/03/12 03:42:47;;;;;;;14.65;2.95;;;10.20;99.90;;;;;;5012877;28;20486;-61
2021/03/12 03:45:14;;;;;;;11.55;2.63;;;10.10;99.90;;;;;;5029050;28;20100;-60
2021/03/12 03:47:41;;;;;;;13.80;3.15;;;10.20;99.90;;;;;;5023318;28;20037;-61
2021/03/12 03:50:09;;;;;;;16.73;2.90;;;10.20;99.90;;;;;;5016240;28;20513;-60
2021/03/12 03:52:36;;;;;;;16.50;3.35;;;10.20;99.90;;;;;;5012280;28;20141;-61
2021/03/12 03:55:03;;;;;;;14.38;3.17;;;10.20;99.90;;;;;;5018461;28;20032;-61
2021/03/12 03:57:30;;;;;;;11.95;2.45;;;10.30;99.90;;;;;;5012236;28;20522;-61
2021/03/12 03:59:58;;;;;;;9.40;3.20;;;10.30;99.90;;;;;;5018498;28;20029;-60
2021/03/12 04:02:24;;;;;;;18.67;2.90;;;10.20;99.90;;;;;;5012193;28;20048;-61
2021/03/12 04:04:52;;;;;;;14.95;3.33;;;10.10;99.90;;;;;;5018151;28;20049;-61
2021/03/12 04:07:19;;;;;;;14.30;3.45;;;10.10;99.90;;;;;;5012180;28;20029;-60
2021/03/12 04:09:49;;;;;;;18.70;3.08;;;10.10;99.90;;;;;;5018187;28;20014;-60
2021/03/12 04:12:16;;;;;;;16.52;3.28;;;10.40;99.90;;;;;;5012188;28;20022;-62
2021/03/12 04:14:44;;;;;;;17.60;3.22;;;10.30;99.90;;;;;;5018117;28;20072;-61
2021/03/12 04:17:10;;;;;;;16.10;4.05;;;10.10;99.90;;;;;;5012051;28;20030;-61
2021/03/12 04:19:37;;;;;;;23.77;4.25;;;10.10;99.90;;;;;;5018352;28;20494;-61
2021/03/12 04:22:03;;;;;;;16.05;3.65;;;10.10;99.90;;;;;;5010973;28;20033;-61
2021/03/12 04:24:30;;;;;;;13.88;3.00;;;10.00;99.90;;;;;;5024673;28;20013;-62
2021/03/12 04:26:56;;;;;;;19.83;4.18;;;10.00;99.90;;;;;;5027765;28;20501;-60
2021/03/12 04:29:22;;;;;;;18.70;3.20;;;10.00;99.90;;;;;;5021507;28;20030;-61
2021/03/12 04:31:48;;;;;;;20.85;4.13;;;10.00;99.90;;;;;;5013678;28;20065;-60
2021/03/12 04:34:14;;;;;;;15.63;3.28;;;10.10;99.90;;;;;;5024360;28;20041;-60
2021/03/12 04:36:41;;;;;;;15.80;3.10;;;10.10;99.90;;;;;;5026303;28;20052;-60
2021/03/12 04:39:07;;;;;;;17.08;3.15;;;10.10;99.90;;;;;;5024515;28;20048;-60
2021/03/12 04:41:34;;;;;;;13.77;3.15;;;10.10;99.90;;;;;;5013328;28;20072;-61
2021/03/12 04:44:01;;;;;;;20.88;3.50;;;9.90;99.90;;;;;;5025937;28;20109;-61
2021/03/12 04:46:27;;;;;;;13.65;2.60;;;9.90;99.90;;;;;;5033004;28;20433;-61
2021/03/12 04:48:54;;;;;;;16.27;2.97;;;9.80;99.90;;;;;;5025755;28;20052;-60
2021/03/12 04:51:19;;;;;;;16.83;2.67;;;9.80;99.90;;;;;;5012961;28;20543;-60
2021/03/12 04:53:45;;;;;;;18.02;3.13;;;9.90;99.90;;;;;;5023812;28;20124;-60
2021/03/12 04:56:13;;;;;;;14.18;3.22;;;10.00;99.90;;;;;;5012918;28;20088;-60
2021/03/12 04:58:40;;;;;;;15.73;3.17;;;9.90;99.90;;;;;;5022967;28;20052;-61
2021/03/12 05:01:09;;;;;;;13.40;3.10;;;10.00;99.90;;;;;;5013603;28;20510;-60
2021/03/12 05:03:37;;;;;;;12.05;3.00;;;10.00;99.90;;;;;;5022440;28;20051;-60
2021/03/12 05:06:06;;;;;;;15.20;2.53;;;9.80;99.90;;;;;;5013638;28;20060;-60
2021/03/12 05:08:33;;;;;;;14.35;3.22;;;10.00;99.90;;;;;;5021862;28;20092;-61
2021/03/12 05:11:07;;;;;;;19.20;2.92;;;10.00;99.90;;;;;;5014424;28;20025;-61
2021/03/12 05:13:33;;;;;;;17.10;3.17;;;10.10;99.90;;;;;;5021972;28;20029;-61
2021/03/12 05:15:59;;;;;;;17.08;3.03;;;10.00;99.90;;;;;;5031713;28;20417;-60
2021/03/12 05:18:25;;;;;;;16.25;3.25;;;9.80;99.90;;;;;;5030496;28;20024;-60
2021/03/12 05:20:51;;;;;;;13.25;2.80;;;9.70;99.90;;;;;;5031634;28;20477;-61
2021/03/12 05:23:18;;;;;;;17.70;3.05;;;9.80;99.90;;;;;;5030609;28;20022;-61
2021/03/12 05:25:44;;;;;;;14.52;2.85;;;9.80;99.90;;;;;;5032024;28;20044;-60
2021/03/12 05:28:10;;;;;;;15.40;2.60;;;9.70;99.90;;;;;;5025987;28;20025;-60
2021/03/12 05:30:36;;;;;;;11.35;2.70;;;9.70;99.90;;;;;;5030936;28;20481;-60
2021/03/12 05:33:02;;;;;;;10.60;2.50;;;9.70;99.90;;;;;;5030330;28;20057;-60
2021/03/12 05:35:28;;;;;;;12.40;2.25;;;9.60;99.90;;;;;;5030712;28;20069;-60
2021/03/12 05:37:54;;;;;;;14.43;2.60;;;9.70;99.90;;;;;;5030474;28;20032;-61
2021/03/12 05:40:20;;;;;;;9.75;2.20;;;9.80;99.90;;;;;;5030896;28;20605;-60
2021/03/12 05:42:48;;;;;;;7.32;2.03;;;9.80;99.90;;;;;;5028836;28;20164;-60
2021/03/12 05:45:16;;;;;;;12.50;2.47;;;9.70;99.90;;;;;;5031274;28;20021;-61
2021/03/12 05:47:42;;;;;;;10.77;2.63;;;9.70;99.90;;;;;;5029411;28;20122;-63
2021/03/12 05:50:08;;;;;;;15.40;2.72;;;9.80;99.90;;;;;;5031639;28;20157;-61
2021/03/12 05:52:34;;;;;;;8.82;2.45;;;9.60;99.90;;;;;;5029428;28;20034;-61
2021/03/12 05:55:00;;;;;;;8.65;1.92;;;9.80;99.90;;;;;;5030797;28;20508;-60
2021/03/12 05:57:29;;;;;;;8.68;1.98;;;9.70;99.90;;;;;;5028841;28;20033;-60
2021/03/12 05:59:57;;;;;;;13.32;2.17;;;9.60;99.90;;;;;;5030344;28;20428;-60
2021/03/12 06:02:22;;;;;;;9.30;2.17;;;9.50;99.90;;;;;;5028607;28;20556;-61
2021/03/12 06:04:48;;;;;;;11.93;2.40;;;9.60;99.90;;;;;;5030076;28;20049;-61
2021/03/12 06:07:13;;;;;;;14.30;2.95;;;9.50;99.90;;;;;;5025243;28;20090;-60
2021/03/12 06:09:42;;;;;;;17.23;2.42;;;9.80;99.90;;;;;;5025600;28;20033;-61
2021/03/12 06:12:08;;;;;;;12.02;2.20;;;9.60;99.90;;;;;;5029688;28;20578;-61
2021/03/12 06:14:53;;;;;;;8.63;2.22;;;9.80;99.90;;;;;;5030436;28;20025;-61
2021/03/12 06:17:42;;;;;;;12.35;2.40;;;9.70;99.90;;;;;;5026848;28;20049;-61
2021/03/12 06:20:18;;;;;;;6.97;2.33;;;9.60;99.90;;;;;;5028221;28;20068;-61
2021/03/12 06:22:58;;;;;;;10.45;1.90;;;9.60;99.90;;;;;;5029933;28;20087;-60
2021/03/12 06:25:26;;;;;;;11.90;2.03;;;9.60;99.90;;;;;;5028905;28;20045;-60
2021/03/12 06:27:53;;;;;;;12.10;2.30;;;9.50;99.90;;;;;;5032694;28;20048;-61
2021/03/12 06:30:23;;;;;;;5.85;1.27;;;9.50;99.90;;;;;;5032709;28;20467;-61
2021/03/12 06:32:51;;;;;;;10.40;2.15;;;9.50;99.90;;;;;;5028573;28;20061;-61
2021/03/12 06:35:23;;;;;;;8.35;1.30;;;9.60;99.90;;;;;;5029029;28;20565;-60
2021/03/12 06:37:49;;;;;;;5.97;1.38;;;9.60;99.90;;;;;;5028268;28;20025;-60
2021/03/12 06:40:29;;;;;;;9.88;2.00;;;9.50;99.90;;;;;;5029777;28;20033;-60
2021/03/12 06:43:14;;;;;;;5.95;1.65;;;9.60;99.90;;;;;;5027024;28;20084;-60
2021/03/12 06:45:52;;;;;;;4.20;1.17;;;9.50;99.90;;;;;;5029440;28;20113;-61
2021/03/12 06:48:23;;;;;;;4.20;1.15;;;9.40;99.90;;;;;;5027001;28;20509;-61
2021/03/12 06:50:53;;;;;;;5.35;1.65;;;9.50;99.90;;;;;;5026984;28;20074;-60
2021/03/12 06:53:19;;;;;;;6.93;1.25;;;9.50;99.90;;;;;;5023546;28;20438;-60
2021/03/12 06:55:45;;;;;;;4.28;1.48;;;9.40;99.90;;;;;;5014636;28;20038;-60
2021/03/12 06:58:11;;;;;;;6.03;1.60;;;9.40;99.90;;;;;;5016718;28;20068;-60
2021/03/12 07:00:36;;;;;;;8.60;1.50;;;9.50;99.90;;;;;;5015811;28;20025;-62
2021/03/12 07:03:20;;;;;;;9.40;1.65;;;9.50;99.90;;;;;;5015382;28;20092;-60
2021/03/12 07:06:16;;;;;;;6.72;2.08;;;9.50;99.90;;;;;;5014148;28;20061;-60
2021/03/12 07:08:47;;;;;;;6.30;1.48;;;9.40;99.90;;;;;;5020711;28;20039;-61
2021/03/12 07:11:25;;;;;;;9.73;1.83;;;9.50;99.90;;;;;;5017464;28;20518;-60
2021/03/12 07:13:54;;;;;;;6.45;1.42;;;9.50;99.90;;;;;;5025896;28;20028;-62
2021/03/12 07:16:21;;;;;;;6.38;1.30;;;9.50;99.90;;;;;;5029564;28;20037;-61
2021/03/12 07:18:48;;;;;;;6.38;1.42;;;9.70;99.90;;;;;;5027789;28;20031;-61
2021/03/12 07:21:16;;;;;;;4.95;1.60;;;9.70;99.90;;;;;;5029394;28;20020;-61
2021/03/12 07:23:46;;;;;;;7.85;1.65;;;9.60;99.90;;;;;;5027386;28;20026;-61
2021/03/12 07:26:13;;;;;;;9.23;1.70;;;9.80;99.90;;;;;;5029491;28;20033;-61
2021/03/12 07:28:44;;;;;;;10.68;3.00;;;9.60;99.90;;;;;;5028170;28;20053;-61
2021/03/12 07:31:12;;;;;;;11.57;2.45;;;9.80;99.90;;;;;;5029145;28;20021;-60
2021/03/12 07:33:42;;;;;;;9.27;2.22;;;9.70;99.90;;;;;;5025893;28;20094;-61
2021/03/12 07:36:10;;;;;;;6.30;1.60;;;9.90;99.90;;;;;;5029097;28;20112;-60
2021/03/12 07:38:38;;;;;;;9.35;1.45;;;9.80;99.90;;;;;;5020494;28;20120;-61
2021/03/12 07:41:05;;;;;;;9.70;2.00;;;9.90;99.90;;;;;;5011288;28;20051;-61
2021/03/12 07:43:50;;;;;;;8.65;1.70;;;9.80;99.90;;;;;;5018685;28;20041;-60
2021/03/12 07:46:17;;;;;;;8.30;1.67;;;9.90;99.90;;;;;;5009515;28;20034;-62
2021/03/12 07:48:43;;;;;;;7.82;1.67;;;9.80;99.90;;;;;;5023040;28;20033;-61
2021/03/12 07:51:14;;;;;;;7.47;1.65;;;9.90;99.90;;;;;;5010677;28;20140;-61
2021/03/12 07:53:51;;;;;;;9.73;1.95;;;9.70;99.90;;;;;;5019530;28;20029;-61
2021/03/12 07:56:43;;;;;;;8.23;1.55;;;10.00;99.90;;;;;;5009789;28;20513;-60
2021/03/12 07:59:09;;;;;;;7.25;1.63;;;9.90;99.90;;;;;;5017880;28;20033;-60
2021/03/12 08:01:49;;;;;;;7.88;1.48;;;10.00;99.90;;;;;;5025219;28;20108;-60
2021/03/12 08:04:33;;;;;;;7.25;1.33;;;10.10;99.90;;;;;;5017049;28;20050;-61
2021/03/12 08:07:00;;;;;;;7.03;1.33;;;10.10;99.90;;;;;;5027367;28;20044;-61
2021/03/12 08:09:34;;;;;;;9.43;1.70;;;10.10;99.90;;;;;;5019939;28;20501;-60
2021/03/12 08:12:00;;;;;;;5.30;1.85;;;10.10;99.90;;;;;;5010583;28;20026;-60
2021/03/12 08:14:26;;;;;;;7.75;1.75;;;10.10;99.90;;;;;;5019926;28;20585;-60
2021/03/12 08:16:57;;;;;;;9.90;1.88;;;10.30;99.90;;;;;;5009935;28;20030;-61
2021/03/12 08:19:37;;;;;;;7.70;1.88;;;10.40;99.90;;;;;;5018622;28;20061;-61
2021/03/12 08:22:28;;;;;;;7.47;1.80;;;10.40;99.90;;;;;;5027425;28;20315;-61
2021/03/12 08:24:58;;;;;;;7.35;1.88;;;10.60;99.90;;;;;;5026125;28;20091;-60
2021/03/12 08:27:51;;;;;;;4.18;1.38;;;10.70;99.90;;;;;;5026844;28;20022;-61
2021/03/12 08:30:25;;;;;;;8.32;2.00;;;10.60;99.90;;;;;;5021315;28;20609;-61
2021/03/12 08:32:55;;;;;;;6.45;2.05;;;10.50;99.90;;;;;;5022704;28;20071;-61
2021/03/12 08:35:51;;;;;;;9.57;1.58;;;10.50;99.90;;;;;;5019282;28;20037;-61
2021/03/12 08:38:22;;;;;;;11.70;1.67;;;10.60;99.90;;;;;;5022258;28;20052;-65
2021/03/12 08:41:06;;;;;;;6.45;1.80;;;10.70;99.90;;;;;;5012972;28;20026;-61
2021/03/12 08:43:32;;;;;;;8.10;2.08;;;11.10;99.90;;;;;;5017587;28;20087;-61
2021/03/12 08:46:02;;;;;;;5.30;1.48;;;11.00;99.90;;;;;;5011827;28;20034;-61
2021/03/12 08:48:30;;;;;;;7.45;1.45;;;10.90;99.90;;;;;;5017051;28;20143;-61
2021/03/12 08:50:58;;;;;;;10.95;1.60;;;11.00;99.90;;;;;;5028453;28;20514;-62
2021/03/12 08:53:27;;;;;;;6.20;1.58;;;10.90;99.90;;;;;;5023281;28;20056;-62
2021/03/12 08:55:54;;;;;;;4.38;1.67;;;10.90;99.90;;;;;;5028387;28;20053;-63
2021/03/12 08:58:20;;;;;;;5.47;1.35;;;11.00;99.90;;;;;;5022564;28;20057;-61
2021/03/12 09:00:57;;;;;;;7.63;1.60;;;10.90;99.90;;;;;;5013374;28;20061;-63
2021/03/12 09:03:34;;;;;;;8.65;1.45;;;11.10;99.90;;;;;;5019535;28;20020;-63
2021/03/12 09:06:08;;;;;;;6.07;1.17;;;11.10;99.90;;;;;;5026046;28;20049;-61
2021/03/12 09:08:35;;;;;;;6.53;1.48;;;10.90;99.90;;;;;;5025551;28;20030;-62
2021/03/12 09:11:04;;;;;;;8.05;1.52;;;11.20;99.90;;;;;;5028523;28;20021;-61
2021/03/12 09:13:32;;;;;;;8.35;1.55;;;11.20;99.90;;;;;;5026046;28;20022;-61
2021/03/12 09:15:58;;;;;;;10.77;1.67;;;11.40;99.90;;;;;;5031434;28;20116;-62
2021/03/12 09:18:26;;;;;;;5.50;1.40;;;11.20;99.90;;;;;;5026000;28;20440;-67
2021/03/12 09:21:00;;;;;;;7.75;2.05;;;11.40;99.90;;;;;;5031768;28;20076;-66
2021/03/12 09:23:35;;;;;;;8.43;1.55;;;11.50;99.90;;;;;;5025559;28;20036;-67
2021/03/12 09:26:01;;;;;;;8.93;1.70;;;11.30;99.90;;;;;;5032575;28;20048;-66
2021/03/12 09:28:30;;;;;;;8.05;1.75;;;11.60;99.90;;;;;;5025902;28;20083;-66
2021/03/12 09:30:57;;;;;;;9.73;2.00;;;11.50;99.90;;;;;;5032121;28;20069;-67
2021/03/12 09:33:30;;;;;;;7.80;1.52;;;11.40;99.90;;;;;;5025799;28;20534;-66
2021/03/12 09:35:56;;;;;;;7.00;1.75;;;11.60;99.90;;;;;;5027213;28;20431;-66
2021/03/12 09:38:38;;;;;;;11.93;2.28;;;11.40;99.90;;;;;;5019237;28;20552;-66
2021/03/12 09:41:19;;;;;;;6.28;1.60;;;11.90;99.90;;;;;;5014035;28;20022;-66
2021/03/12 09:43:56;;;;;;;6.70;1.90;;;12.60;99.90;;;;;;5023020;28;20397;-66
2021/03/12 09:46:29;;;;;;;8.85;1.90;;;12.60;99.90;;;;;;5012258;28;20080;-66
2021/03/12 09:48:55;;;;;;;9.50;1.88;;;12.40;99.90;;;;;;5023429;28;20044;-66
2021/03/12 09:51:23;;;;;;;6.80;1.40;;;12.40;99.90;;;;;;5023450;28;20382;-66
2021/03/12 09:53:50;;;;;;;7.07;1.98;;;12.40;99.90;;;;;;5025532;28;20018;-67
2021/03/12 09:56:19;;;;;;;8.15;1.92;;;12.60;99.90;;;;;;5012074;28;20091;-67
2021/03/12 09:58:46;;;;;;;6.05;1.65;;;12.50;99.90;;;;;;5022328;28;20029;-65
2021/03/12 10:01:19;;;;;;;7.55;2.33;;;12.50;99.90;;;;;;5012644;28;20029;-65
2021/03/12 10:03:46;;;;;;;7.18;1.88;;;12.40;99.90;;;;;;5021850;28;20532;-65
2021/03/12 10:06:13;;;;;;;9.10;1.52;;;12.60;99.90;;;;;;5012200;28;20495;-65
2021/03/12 10:09:08;;;;;;;5.63;1.50;;;12.80;99.90;;;;;;5025010;28;20053;-65
2021/03/12 10:11:47;;;;;;;7.70;1.65;;;13.00;99.90;;;;;;5030021;28;20029;-65
2021/03/12 10:14:40;;;;;;;6.60;1.38;;;13.00;99.90;;;;;;5029223;28;20099;-66
2021/03/12 10:17:19;;;;;;;6.85;1.58;;;12.70;99.90;;;;;;5028618;28;20049;-65
2021/03/12 10:19:54;;;;;;;11.57;2.10;;;12.40;99.90;;;;;;5029468;28;20024;-65
2021/03/12 10:22:24;;;;;;;4.28;1.63;;;12.70;99.90;;;;;;5027398;28;20037;-65
2021/03/12 10:25:12;;;;;;;9.45;2.00;;;12.80;99.90;;;;;;5028359;28;20021;-65
2021/03/12 10:27:42;;;;;;;7.00;1.95;;;12.60;99.90;;;;;;5021353;28;20522;-65
2021/03/12 10:30:35;;;;;;;10.75;2.30;;;12.30;99.90;;;;;;5029833;28;20033;-65
2021/03/12 10:33:09;;;;;;;7.60;1.95;;;12.50;99.90;;;;;;5022281;28;20120;-65
2021/03/12 10:35:40;;;;;;;6.78;1.80;;;12.20;99.90;;;;;;5016786;28;20082;-66
2021/03/12 10:38:05;;;;;;;10.55;1.38;;;12.40;99.90;;;;;;5023837;28;20532;-65
2021/03/12 10:40:40;;;;;;;6.65;1.63;;;12.40;99.90;;;;;;5029640;28;20117;-65
2021/03/12 10:43:20;;;;;;;8.57;2.08;;;12.30;99.90;;;;;;5028753;28;20021;-65
2021/03/12 10:45:48;;;;;;;12.00;2.28;;;12.30;99.90;;;;;;5013322;28;20105;-66
2021/03/12 10:48:15;;;;;;;10.80;2.45;;;12.20;99.90;;;;;;5014555;28;20033;-65
2021/03/12 10:50:41;;;;;;;9.20;1.90;;;12.20;99.90;;;;;;5014981;28;20022;-66
2021/03/12 10:53:07;;;;;;;7.85;2.17;;;12.20;99.90;;;;;;5014894;28;20608;-66
2021/03/12 10:55:38;;;;;;;10.43;2.08;;;12.20;99.90;;;;;;5016285;28;20118;-66
2021/03/12 10:58:04;;;;;;;7.40;1.60;;;12.10;99.90;;;;;;5014410;28;20052;-66
2021/03/12 11:00:31;;;;;;;8.23;1.90;;;12.00;99.90;;;;;;5017119;28;20488;-66
2021/03/12 11:03:02;;;;;;;10.02;1.90;;;11.90;99.90;;;;;;5014112;28;20037;-66
2021/03/12 11:05:29;;;;;;;11.68;2.55;;;12.00;99.90;;;;;;5017204;28;20054;-66
2021/03/12 11:07:55;;;;;;;7.47;1.67;;;12.00;99.90;;;;;;5013956;28;20030;-66
2021/03/12 11:10:22;;;;;;;8.82;2.55;;;12.40;99.90;;;;;;5028901;28;20521;-67
2021/03/12 11:12:49;;;;;;;9.25;1.73;;;12.50;99.90;;;;;;5027570;28;20022;-67
2021/03/12 11:15:17;;;;;;;10.73;2.08;;;12.60;99.90;;;;;;5029384;28;20024;-66
2021/03/12 11:17:47;;;;;;;10.20;2.30;;;12.40;99.90;;;;;;5027459;28;20037;-65
2021/03/12 11:20:21;;;;;;;11.10;1.70;;;12.50;99.90;;;;;;5031326;28;20433;-66
2021/03/12 11:22:48;;;;;;;8.48;1.83;;;12.50;99.90;;;;;;5029394;28;20115;-65
2021/03/12 11:25:16;;;;;;;12.32;3.20;;;12.30;99.90;;;;;;5030462;28;20049;-66
2021/03/12 11:27:43;;;;;;;11.52;1.80;;;12.30;99.90;;;;;;5032384;28;20028;-67
2021/03/12 11:30:19;;;;;;;7.47;2.05;;;12.30;99.90;;;;;;5017712;28;20386;-67
2021/03/12 11:32:46;;;;;;;7.50;1.58;;;12.70;99.90;;;;;;5024268;28;20029;-67
2021/03/12 11:35:14;;;;;;;13.10;2.38;;;12.90;99.90;;;;;;5029046;28;20100;-66
2021/03/12 11:37:39;;;;;;;10.35;1.58;;;13.00;99.90;;;;;;5024610;28;20429;-66
2021/03/12 11:40:07;;;;;;;14.73;2.10;;;13.30;99.90;;;;;;5018978;28;20022;-67
2021/03/12 11:42:33;;;;;;;11.95;2.20;;;13.80;99.90;;;;;;5012626;28;20037;-66
2021/03/12 11:45:00;;;;;;;11.63;1.80;;;13.60;99.90;;;;;;5019779;28;20104;-67
2021/03/12 11:47:26;;;;;;;6.53;2.28;;;13.60;99.90;;;;;;5012439;28;20513;-66
2021/03/12 11:49:52;;;;;;;10.25;1.95;;;13.50;99.90;;;;;;5026446;28;20080;-67
2021/03/12 11:52:25;;;;;;;8.02;2.10;;;13.40;99.90;;;;;;5034770;28;20211;-67
2021/03/12 11:54:51;;;;;;;9.05;1.88;;;13.80;99.90;;;;;;5025350;28;20651;-67
2021/03/12 11:57:17;;;;;;;13.27;2.08;;;14.30;99.90;;;;;;5024447;28;20116;-66
2021/03/12 11:59:43;;;;;;;4.28;1.23;;;14.30;99.90;;;;;;5028262;28;20064;-67
2021/03/12 12:02:10;;;;;;;8.73;1.80;;;13.90;99.90;;;;;;5028001;28;20026;-66
2021/03/12 12:04:36;;;;;;;15.27;2.20;;;13.60;99.90;;;;;;5027991;28;20037;-66
2021/03/12 12:07:02;;;;;;;7.95;1.48;;;13.40;99.90;;;;;;5027283;28;20037;-67
2021/03/12 12:09:28;;;;;;;7.07;1.80;;;13.70;99.90;;;;;;5018406;28;20069;-67
2021/03/12 12:11:54;;;;;;;7.15;2.05;;;14.10;99.90;;;;;;5009851;28;20581;-66
2021/03/12 12:14:21;;;;;;;7.85;1.63;;;14.60;99.90;;;;;;5020325;28;20513;-67
2021/03/12 12:16:48;;;;;;;6.00;1.58;;;13.90;99.90;;;;;;5009562;28;20048;-67
2021/03/12 12:19:16;;;;;;;7.32;1.70;;;13.90;99.90;;;;;;5020972;28;20033;-67
2021/03/12 12:21:42;;;;;;;6.60;1.67;;;14.20;99.90;;;;;;5009534;28;20076;-67
2021/03/12 12:24:08;;;;;;;5.88;1.55;;;14.50;99.90;;;;;;5022415;28;20033;-67
2021/03/12 12:26:34;;;;;;;9.27;1.73;;;14.20;99.90;;;;;;5029066;28;20026;-67
2021/03/12 12:29:04;;;;;;;6.82;1.70;;;14.20;99.90;;;;;;5023366;28;20021;-67
2021/03/12 12:31:31;;;;;;;8.00;1.60;;;14.40;99.90;;;;;;5029320;28;20030;-66
2021/03/12 12:33:57;;;;;;;6.10;1.00;;;15.10;99.90;;;;;;5022772;28;20022;-67
2021/03/12 12:36:23;;;;;;;6.10;1.63;;;14.40;99.90;;;;;;5012142;28;20050;-67
2021/03/12 12:38:49;;;;;;;4.00;1.30;;;14.80;99.90;;;;;;5022884;28;20064;-67
2021/03/12 12:41:16;;;;;;;4.30;1.58;;;14.70;99.90;;;;;;5010260;28;20029;-67
2021/03/12 12:43:42;;;;;;;4.28;1.55;;;14.50;99.90;;;;;;5019974;28;20133;-67
2021/03/12 12:46:08;;;;;;;6.43;1.38;;;14.60;99.90;;;;;;5011003;28;20494;-67
2021/03/12 12:48:33;;;;;;;5.57;1.38;;;14.30;99.90;;;;;;5036438;28;20125;-67
2021/03/12 12:50:59;;;;;;;5.05;1.55;;;14.40;99.90;;;;;;5034424;28;20053;-67
2021/03/12 12:53:25;;;;;;;4.57;1.50;;;14.90;99.90;;;;;;5030838;28;20022;-66